Terminal Aerodrome Forecast
Issued by NWS Amarillo, TX

Home | Current Version | Previous Version | Text Only | Print | Product List | Glossary On
Versions: 1 2 3 4 5 6 7 8 9 10 11 12 13
481
FTUS44 KAMA 232320
TAFDHT
TAF
KDHT 232320Z 2400/2424 08010KT P6SM SCT060 BKN110
     FM240400 VRB04KT P6SM BKN110
     FM241600 15011KT P6SM SCT080 SCT120=

USA.gov is the U.S. government's official web portal to all federal, state and local government web resources and services.